sensor_id;sensor_type;location;lat;lon;timestamp;pressure;altitude;pressure_sealevel;temperature;humidity
11712;BME280;5912;51.034;6.984;2024-03-25T00:01:17;56680.84;;;-142.13;66.11
11712;BME280;5912;51.034;6.984;2024-03-25T00:03:43;56628.78;;;-142.13;66.04
11712;BME280;5912;51.034;6.984;2024-03-25T00:06:08;56632.78;;;-142.13;65.73
11712;BME280;5912;51.034;6.984;2024-03-25T00:08:33;56662.81;;;-142.13;66.08
11712;BME280;5912;51.034;6.984;2024-03-25T00:10:59;56656.81;;;-142.13;66.07
11712;BME280;5912;51.034;6.984;2024-03-25T00:13:24;56654.81;;;-142.13;66.59
11712;BME280;5912;51.034;6.984;2024-03-25T00:15:50;56652.81;;;-142.13;66.79
11712;BME280;5912;51.034;6.984;2024-03-25T00:18:15;56642.78;;;-142.13;66.97
11712;BME280;5912;51.034;6.984;2024-03-25T00:20:41;56668.84;;;-142.13;67.01
11712;BME280;5912;51.034;6.984;2024-03-25T00:23:06;56640.78;;;-142.13;67.27
11712;BME280;5912;51.034;6.984;2024-03-25T00:25:32;56672.84;;;-142.13;67.16
11712;BME280;5912;51.034;6.984;2024-03-25T00:27:57;56640.78;;;-142.13;67.27
11712;BME280;5912;51.034;6.984;2024-03-25T00:30:23;56664.84;;;-142.13;67.26
11712;BME280;5912;51.034;6.984;2024-03-25T00:32:49;56630.78;;;-142.13;67.37
11712;BME280;5912;51.034;6.984;2024-03-25T00:38:36;56624.75;;;-142.13;67.55
11712;BME280;5912;51.034;6.984;2024-03-25T00:41:01;56646.81;;;-142.13;67.59
11712;BME280;5912;51.034;6.984;2024-03-25T00:43:26;56676.84;;;-142.13;67.54
11712;BME280;5912;51.034;6.984;2024-03-25T00:45:52;56632.78;;;-142.13;67.54
11712;BME280;5912;51.034;6.984;2024-03-25T00:48:17;56654.81;;;-142.13;67.72
11712;BME280;5912;51.034;6.984;2024-03-25T00:50:42;56757.00;;;-142.13;67.77
11712;BME280;5912;51.034;6.984;2024-03-25T00:53:07;56650.81;;;-142.13;68.01
11712;BME280;5912;51.034;6.984;2024-03-25T00:55:33;56642.78;;;-142.13;68.21
11712;BME280;5912;51.034;6.984;2024-03-25T00:58:01;56620.75;;;-142.13;67.77
11712;BME280;5912;51.034;6.984;2024-03-25T01:00:26;56638.78;;;-142.13;67.81
11712;BME280;5912;51.034;6.984;2024-03-25T01:02:51;56650.81;;;-142.13;68.24
11712;BME280;5912;51.034;6.984;2024-03-25T01:05:17;56648.81;;;-142.13;68.19
11712;BME280;5912;51.034;6.984;2024-03-25T01:07:43;56640.78;;;-142.13;68.28
11712;BME280;5912;51.034;6.984;2024-03-25T01:10:09;56620.75;;;-142.13;68.30
11712;BME280;5912;51.034;6.984;2024-03-25T01:12:34;56636.78;;;-142.13;68.47
11712;BME280;5912;51.034;6.984;2024-03-25T01:15:00;56636.78;;;-142.13;68.49
11712;BME280;5912;51.034;6.984;2024-03-25T01:17:27;56676.84;;;-142.13;68.52
11712;BME280;5912;51.034;6.984;2024-03-25T01:19:52;56634.78;;;-142.13;68.75
11712;BME280;5912;51.034;6.984;2024-03-25T01:22:18;56648.81;;;-142.13;68.33
11712;BME280;5912;51.034;6.984;2024-03-25T01:24:43;56646.81;;;-142.13;68.44
11712;BME280;5912;51.034;6.984;2024-03-25T01:27:09;56632.78;;;-142.13;68.28
11712;BME280;5912;51.034;6.984;2024-03-25T01:29:34;56650.81;;;-142.13;68.80
11712;BME280;5912;51.034;6.984;2024-03-25T01:31:59;56630.78;;;-142.13;68.75
11712;BME280;5912;51.034;6.984;2024-03-25T01:34:26;56668.84;;;-142.13;68.82
11712;BME280;5912;51.034;6.984;2024-03-25T01:36:51;56642.78;;;-142.13;68.97
11712;BME280;5912;51.034;6.984;2024-03-25T01:39:17;56642.78;;;-142.13;68.83
11712;BME280;5912;51.034;6.984;2024-03-25T01:41:43;56642.78;;;-142.13;68.89
11712;BME280;5912;51.034;6.984;2024-03-25T01:44:08;56658.81;;;-142.13;68.52
11712;BME280;5912;51.034;6.984;2024-03-25T01:46:34;56648.81;;;-142.13;68.61
11712;BME280;5912;51.034;6.984;2024-03-25T01:49:00;56648.81;;;-142.13;68.61
11712;BME280;5912;51.034;6.984;2024-03-25T01:51:26;56632.78;;;-142.13;68.35
11712;BME280;5912;51.034;6.984;2024-03-25T01:53:53;56616.75;;;-142.13;68.18
11712;BME280;5912;51.034;6.984;2024-03-25T01:56:20;56652.81;;;-142.13;68.25
11712;BME280;5912;51.034;6.984;2024-03-25T01:58:47;56656.81;;;-142.13;67.97
11712;BME280;5912;51.034;6.984;2024-03-25T02:01:13;56672.84;;;-142.13;68.62
11712;BME280;5912;51.034;6.984;2024-03-25T02:03:41;56676.84;;;-142.13;68.36
11712;BME280;5912;51.034;6.984;2024-03-25T02:06:12;56660.81;;;-142.13;68.37
11712;BME280;5912;51.034;6.984;2024-03-25T02:08:39;56636.78;;;-142.13;68.48
11712;BME280;5912;51.034;6.984;2024-03-25T02:11:05;56656.81;;;-142.13;68.10
11712;BME280;5912;51.034;6.984;2024-03-25T02:13:31;56608.75;;;-142.13;68.30
11712;BME280;5912;51.034;6.984;2024-03-25T02:15:57;56656.81;;;-142.13;68.53
11712;BME280;5912;51.034;6.984;2024-03-25T02:18:22;56686.88;;;-142.13;69.25
11712;BME280;5912;51.034;6.984;2024-03-25T02:20:48;56640.78;;;-142.13;68.82
11712;BME280;5912;51.034;6.984;2024-03-25T02:23:14;56624.75;;;-142.13;68.73
11712;BME280;5912;51.034;6.984;2024-03-25T02:25:42;56652.81;;;-142.13;68.73
11712;BME280;5912;51.034;6.984;2024-03-25T02:28:08;56626.78;;;-142.13;68.71
11712;BME280;5912;51.034;6.984;2024-03-25T02:30:33;56678.84;;;-142.13;68.63
11712;BME280;5912;51.034;6.984;2024-03-25T02:32:58;56644.81;;;-142.13;68.36
11712;BME280;5912;51.034;6.984;2024-03-25T02:35:25;56642.78;;;-142.13;68.19
11712;BME280;5912;51.034;6.984;2024-03-25T02:37:51;56652.81;;;-142.13;68.38
11712;BME280;5912;51.034;6.984;2024-03-25T02:40:17;56660.81;;;-142.13;68.61
11712;BME280;5912;51.034;6.984;2024-03-25T02:42:43;56640.78;;;-142.13;68.25
11712;BME280;5912;51.034;6.984;2024-03-25T02:45:09;56660.81;;;-142.13;68.36
11712;BME280;5912;51.034;6.984;2024-03-25T02:47:34;56646.81;;;-142.13;68.44
11712;BME280;5912;51.034;6.984;2024-03-25T02:50:00;56752.97;;;-142.13;68.21
11712;BME280;5912;51.034;6.984;2024-03-25T02:52:25;56626.78;;;-142.13;68.14
11712;BME280;5912;51.034;6.984;2024-03-25T02:54:51;56636.78;;;-142.13;68.24
11712;BME280;5912;51.034;6.984;2024-03-25T02:57:16;56660.81;;;-142.13;67.96
11712;BME280;5912;51.034;6.984;2024-03-25T02:59:41;56640.78;;;-142.13;68.00
11712;BME280;5912;51.034;6.984;2024-03-25T03:02:07;56672.84;;;-142.13;68.40
11712;BME280;5912;51.034;6.984;2024-03-25T03:04:32;56666.84;;;-142.13;68.14
11712;BME280;5912;51.034;6.984;2024-03-25T03:06:58;56664.84;;;-142.13;68.19
11712;BME280;5912;51.034;6.984;2024-03-25T03:09:23;56648.81;;;-142.13;68.38
11712;BME280;5912;51.034;6.984;2024-03-25T03:11:48;56640.78;;;-142.13;68.18
11712;BME280;5912;51.034;6.984;2024-03-25T03:14:14;56632.78;;;-142.13;68.21
11712;BME280;5912;51.034;6.984;2024-03-25T03:16:40;56672.84;;;-142.13;68.40
11712;BME280;5912;51.034;6.984;2024-03-25T03:19:05;56684.88;;;-142.13;68.10
11712;BME280;5912;51.034;6.984;2024-03-25T03:21:30;56618.75;;;-142.13;68.40
11712;BME280;5912;51.034;6.984;2024-03-25T03:23:56;56759.00;;;-142.13;68.30
11712;BME280;5912;51.034;6.984;2024-03-25T03:26:21;56638.78;;;-142.13;68.34
11712;BME280;5912;51.034;6.984;2024-03-25T03:28:51;56654.81;;;-142.13;68.45
11712;BME280;5912;51.034;6.984;2024-03-25T03:31:17;56658.81;;;-142.13;68.49
11712;BME280;5912;51.034;6.984;2024-03-25T03:33:42;56660.81;;;-142.13;68.57
11712;BME280;5912;51.034;6.984;2024-03-25T03:36:08;56692.88;;;-142.13;68.56
11712;BME280;5912;51.034;6.984;2024-03-25T03:38:33;56640.78;;;-142.13;68.55
11712;BME280;5912;51.034;6.984;2024-03-25T03:41:00;56630.78;;;-142.13;68.26
11712;BME280;5912;51.034;6.984;2024-03-25T03:43:25;56668.84;;;-142.13;68.33
11712;BME280;5912;51.034;6.984;2024-03-25T03:45:51;56656.81;;;-142.13;68.35
11712;BME280;5912;51.034;6.984;2024-03-25T03:48:16;56646.81;;;-142.13;68.33
11712;BME280;5912;51.034;6.984;2024-03-25T03:50:42;56636.78;;;-142.13;68.72
11712;BME280;5912;51.034;6.984;2024-03-25T03:53:07;56662.81;;;-142.13;68.66
11712;BME280;5912;51.034;6.984;2024-03-25T03:55:33;56674.84;;;-142.13;68.92
11712;BME280;5912;51.034;6.984;2024-03-25T03:57:58;56668.84;;;-142.13;69.06
11712;BME280;5912;51.034;6.984;2024-03-25T04:00:24;56664.84;;;-142.13;69.06
11712;BME280;5912;51.034;6.984;2024-03-25T04:02:49;56680.84;;;-142.13;69.36
11712;BME280;5912;51.034;6.984;2024-03-25T04:05:14;56650.81;;;-142.13;69.34
11712;BME280;5912;51.034;6.984;2024-03-25T04:07:40;56662.81;;;-142.13;69.92
11712;BME280;5912;51.034;6.984;2024-03-25T04:10:05;56668.84;;;-142.13;70.18
11712;BME280;5912;51.034;6.984;2024-03-25T04:12:31;56636.78;;;-142.13;70.03
11712;BME280;5912;51.034;6.984;2024-03-25T04:14:57;56690.88;;;-142.13;70.18
11712;BME280;5912;51.034;6.984;2024-03-25T04:17:22;56682.88;;;-142.13;70.38
11712;BME280;5912;51.034;6.984;2024-03-25T04:19:51;56700.91;;;-142.13;70.67
11712;BME280;5912;51.034;6.984;2024-03-25T04:22:16;56668.84;;;-142.13;70.70
11712;BME280;5912;51.034;6.984;2024-03-25T04:24:45;56668.84;;;-142.13;70.16
11712;BME280;5912;51.034;6.984;2024-03-25T04:27:10;56704.91;;;-142.13;70.11
11712;BME280;5912;51.034;6.984;2024-03-25T04:29:35;56815.09;;;-142.13;70.38
11712;BME280;5912;51.034;6.984;2024-03-25T04:32:01;56674.84;;;-142.13;70.16
11712;BME280;5912;51.034;6.984;2024-03-25T04:34:27;56712.91;;;-142.13;70.09
11712;BME280;5912;51.034;6.984;2024-03-25T04:36:52;56674.84;;;-142.13;70.65
11712;BME280;5912;51.034;6.984;2024-03-25T04:39:18;56708.91;;;-142.13;70.67
11712;BME280;5912;51.034;6.984;2024-03-25T04:41:44;56700.91;;;-142.13;70.35
11712;BME280;5912;51.034;6.984;2024-03-25T04:44:09;56666.84;;;-142.13;70.72
11712;BME280;5912;51.034;6.984;2024-03-25T04:46:34;56684.88;;;-142.13;70.91
11712;BME280;5912;51.034;6.984;2024-03-25T04:49:00;56660.81;;;-142.13;70.65
11712;BME280;5912;51.034;6.984;2024-03-25T04:51:25;56674.84;;;-142.13;70.52
11712;BME280;5912;51.034;6.984;2024-03-25T04:53:52;56676.84;;;-142.13;70.79
11712;BME280;5912;51.034;6.984;2024-03-25T04:56:18;56692.88;;;-142.13;70.85
11712;BME280;5912;51.034;6.984;2024-03-25T04:58:43;56668.84;;;-142.13;71.36
11712;BME280;5912;51.034;6.984;2024-03-25T05:01:08;56714.91;;;-142.13;70.94
11712;BME280;5912;51.034;6.984;2024-03-25T05:03:34;56700.91;;;-142.13;71.69
11712;BME280;5912;51.034;6.984;2024-03-25T05:05:59;56672.84;;;-142.13;71.69
11712;BME280;5912;51.034;6.984;2024-03-25T05:08:24;56716.91;;;-142.13;71.75
11712;BME280;5912;51.034;6.984;2024-03-25T05:10:50;56692.88;;;-142.13;71.23
11712;BME280;5912;51.034;6.984;2024-03-25T05:13:15;56724.94;;;-142.13;71.48
11712;BME280;5912;51.034;6.984;2024-03-25T05:15:40;56704.91;;;-142.13;71.71
11712;BME280;5912;51.034;6.984;2024-03-25T05:18:06;56706.91;;;-142.13;71.88
11712;BME280;5912;51.034;6.984;2024-03-25T05:20:31;56708.91;;;-142.13;72.00
11712;BME280;5912;51.034;6.984;2024-03-25T05:22:56;56702.91;;;-142.13;72.73
11712;BME280;5912;51.034;6.984;2024-03-25T05:25:22;56704.91;;;-142.13;72.80
11712;BME280;5912;51.034;6.984;2024-03-25T05:27:53;56704.91;;;-142.13;72.80
11712;BME280;5912;51.034;6.984;2024-03-25T05:30:19;56700.91;;;-142.13;72.99
11712;BME280;5912;51.034;6.984;2024-03-25T05:32:44;56716.91;;;-142.13;72.77
11712;BME280;5912;51.034;6.984;2024-03-25T05:35:09;56738.97;;;-142.13;72.83
11712;BME280;5912;51.034;6.984;2024-03-25T05:37:35;56708.91;;;-142.13;73.07
11712;BME280;5912;51.034;6.984;2024-03-25T05:40:01;56706.91;;;-142.13;72.84
11712;BME280;5912;51.034;6.984;2024-03-25T05:42:26;56688.88;;;-142.13;72.89
11712;BME280;5912;51.034;6.984;2024-03-25T05:44:52;56700.91;;;-142.13;73.15
11712;BME280;5912;51.034;6.984;2024-03-25T05:47:17;56704.91;;;-142.13;72.41
11712;BME280;5912;51.034;6.984;2024-03-25T05:49:42;56698.88;;;-142.13;72.35
11712;BME280;5912;51.034;6.984;2024-03-25T05:52:08;56682.88;;;-142.13;72.33
11712;BME280;5912;51.034;6.984;2024-03-25T05:54:33;56708.91;;;-142.13;72.73
11712;BME280;5912;51.034;6.984;2024-03-25T05:56:58;56680.84;;;-142.13;72.29
11712;BME280;5912;51.034;6.984;2024-03-25T05:59:23;56698.88;;;-142.13;72.12
11712;BME280;5912;51.034;6.984;2024-03-25T06:01:49;56686.88;;;-142.13;72.29
11712;BME280;5912;51.034;6.984;2024-03-25T06:04:14;56680.84;;;-142.13;72.61
11712;BME280;5912;51.034;6.984;2024-03-25T06:06:39;56700.91;;;-142.13;72.51
11712;BME280;5912;51.034;6.984;2024-03-25T06:09:05;56700.91;;;-142.13;71.96
11712;BME280;5912;51.034;6.984;2024-03-25T06:11:30;56702.91;;;-142.13;72.84
11712;BME280;5912;51.034;6.984;2024-03-25T06:13:56;56692.88;;;-142.13;72.16
11712;BME280;5912;51.034;6.984;2024-03-25T06:16:21;56702.91;;;-142.13;71.91
11712;BME280;5912;51.034;6.984;2024-03-25T06:18:46;56690.88;;;-142.13;71.85
11712;BME280;5912;51.034;6.984;2024-03-25T06:21:12;56714.91;;;-142.13;72.00
11712;BME280;5912;51.034;6.984;2024-03-25T06:23:38;56702.91;;;-142.13;71.69
11712;BME280;5912;51.034;6.984;2024-03-25T06:26:03;56714.91;;;-142.13;71.12
11712;BME280;5912;51.034;6.984;2024-03-25T06:28:29;56660.81;;;-142.13;71.62
11712;BME280;5912;51.034;6.984;2024-03-25T06:30:54;56692.88;;;-142.13;71.45
11712;BME280;5912;51.034;6.984;2024-03-25T06:33:38;56682.88;;;-142.13;71.38
11712;BME280;5912;51.034;6.984;2024-03-25T06:36:22;56688.88;;;-142.13;70.94
11712;BME280;5912;51.034;6.984;2024-03-25T06:38:47;56676.84;;;-142.13;70.55
11712;BME280;5912;51.034;6.984;2024-03-25T06:41:13;56672.84;;;-142.13;70.30
11712;BME280;5912;51.034;6.984;2024-03-25T06:43:39;56690.88;;;-142.13;69.71
11712;BME280;5912;51.034;6.984;2024-03-25T06:46:05;56630.78;;;-142.13;69.18
11712;BME280;5912;51.034;6.984;2024-03-25T06:48:31;56666.84;;;-142.13;68.63
11712;BME280;5912;51.034;6.984;2024-03-25T06:50:58;56674.84;;;-142.13;68.27
11712;BME280;5912;51.034;6.984;2024-03-25T06:53:23;56656.81;;;-142.13;67.58
11712;BME280;5912;51.034;6.984;2024-03-25T06:55:56;56656.81;;;-142.13;67.14
11712;BME280;5912;51.034;6.984;2024-03-25T06:58:23;56636.78;;;-142.13;67.13
11712;BME280;5912;51.034;6.984;2024-03-25T07:00:48;56658.81;;;-142.13;67.10
11712;BME280;5912;51.034;6.984;2024-03-25T07:03:17;56654.81;;;-142.13;67.50
11712;BME280;5912;51.034;6.984;2024-03-25T07:05:47;56644.81;;;-142.13;67.20
11712;BME280;5912;51.034;6.984;2024-03-25T07:08:13;56608.75;;;-142.13;67.44
11712;BME280;5912;51.034;6.984;2024-03-25T07:10:41;56624.75;;;-142.13;66.99
11712;BME280;5912;51.034;6.984;2024-03-25T07:13:07;56638.78;;;-142.13;66.45
11712;BME280;5912;51.034;6.984;2024-03-25T07:15:32;56628.78;;;-142.13;66.36
11712;BME280;5912;51.034;6.984;2024-03-25T07:17:58;56618.75;;;-142.13;65.82
11712;BME280;5912;51.034;6.984;2024-03-25T07:20:23;56604.72;;;-142.13;64.48
11712;BME280;5912;51.034;6.984;2024-03-25T07:22:49;56600.72;;;-142.13;63.15
11712;BME280;5912;51.034;6.984;2024-03-25T07:25:14;56588.69;;;-142.13;62.37
11712;BME280;5912;51.034;6.984;2024-03-25T07:27:39;56584.69;;;-142.13;58.50
11712;BME280;5912;51.034;6.984;2024-03-25T07:30:06;56546.63;;;-142.13;58.22
11712;BME280;5912;51.034;6.984;2024-03-25T07:32:33;56552.66;;;-142.13;57.81
11712;BME280;5912;51.034;6.984;2024-03-25T07:34:58;56528.59;;;-142.13;58.19
11712;BME280;5912;51.034;6.984;2024-03-25T07:37:23;56508.56;;;-142.13;56.67
11712;BME280;5912;51.034;6.984;2024-03-25T07:39:48;56518.59;;;-142.13;54.19
11712;BME280;5912;51.034;6.984;2024-03-25T07:42:14;56500.56;;;-142.13;53.93
11712;BME280;5912;51.034;6.984;2024-03-25T07:44:39;56510.56;;;-142.13;52.35
11712;BME280;5912;51.034;6.984;2024-03-25T07:47:05;56480.53;;;-142.13;51.53
11712;BME280;5912;51.034;6.984;2024-03-25T07:49:31;56456.50;;;-142.13;50.13
11712;BME280;5912;51.034;6.984;2024-03-25T07:51:59;56468.50;;;-142.13;49.67
11712;BME280;5912;51.034;6.984;2024-03-25T07:54:24;56440.47;;;-142.13;47.97
11712;BME280;5912;51.034;6.984;2024-03-25T07:56:52;56432.44;;;-142.13;46.85
11712;BME280;5912;51.034;6.984;2024-03-25T07:59:17;56466.50;;;-142.13;46.20
11712;BME280;5912;51.034;6.984;2024-03-25T08:01:42;56470.50;;;-142.13;47.49
11712;BME280;5912;51.034;6.984;2024-03-25T08:04:08;56460.50;;;-142.13;47.65
11712;BME280;5912;51.034;6.984;2024-03-25T08:06:34;56476.53;;;-142.13;48.76
11712;BME280;5912;51.034;6.984;2024-03-25T08:08:59;56498.56;;;-142.13;49.46
11712;BME280;5912;51.034;6.984;2024-03-25T08:11:24;56474.53;;;-142.13;48.43
11712;BME280;5912;51.034;6.984;2024-03-25T08:13:50;56462.50;;;-142.13;47.71
11712;BME280;5912;51.034;6.984;2024-03-25T08:16:15;56420.44;;;-142.13;45.90
11712;BME280;5912;51.034;6.984;2024-03-25T08:18:40;56404.41;;;-142.13;44.05
11712;BME280;5912;51.034;6.984;2024-03-25T08:21:06;56350.31;;;-142.13;41.33
11712;BME280;5912;51.034;6.984;2024-03-25T08:23:31;56420.44;;;-142.13;40.68
11712;BME280;5912;51.034;6.984;2024-03-25T08:25:56;56412.41;;;-142.13;41.47
11712;BME280;5912;51.034;6.984;2024-03-25T08:28:34;56420.44;;;-142.13;42.85
11712;BME280;5912;51.034;6.984;2024-03-25T08:30:59;56418.44;;;-142.13;41.94
11712;BME280;5912;51.034;6.984;2024-03-25T08:33:24;56416.44;;;-142.13;41.04
11712;BME280;5912;51.034;6.984;2024-03-25T08:35:50;56368.34;;;-142.13;41.78
11712;BME280;5912;51.034;6.984;2024-03-25T08:38:15;56384.38;;;-142.13;40.32
11712;BME280;5912;51.034;6.984;2024-03-25T08:40:41;56388.38;;;-142.13;37.99
11712;BME280;5912;51.034;6.984;2024-03-25T08:43:06;56382.38;;;-142.13;38.67
11712;BME280;5912;51.034;6.984;2024-03-25T08:45:32;56386.38;;;-142.13;39.15
11712;BME280;5912;51.034;6.984;2024-03-25T08:47:57;56356.31;;;-142.13;39.84
11712;BME280;5912;51.034;6.984;2024-03-25T08:50:22;56370.34;;;-142.13;38.16
11712;BME280;5912;51.034;6.984;2024-03-25T08:52:48;56348.31;;;-142.13;38.51
11712;BME280;5912;51.034;6.984;2024-03-25T08:55:13;56356.31;;;-142.13;38.12
11712;BME280;5912;51.034;6.984;2024-03-25T08:57:38;56342.31;;;-142.13;37.29
11712;BME280;5912;51.034;6.984;2024-03-25T09:00:04;56372.34;;;-142.13;38.13
11712;BME280;5912;51.034;6.984;2024-03-25T09:02:30;56378.38;;;-142.13;38.37
11712;BME280;5912;51.034;6.984;2024-03-25T09:04:55;56378.38;;;-142.13;37.48
11712;BME280;5912;51.034;6.984;2024-03-25T09:07:21;56384.38;;;-142.13;37.84
11712;BME280;5912;51.034;6.984;2024-03-25T09:09:46;56422.44;;;-142.13;37.72
11712;BME280;5912;51.034;6.984;2024-03-25T09:12:30;56432.44;;;-142.13;37.52
11712;BME280;5912;51.034;6.984;2024-03-25T09:14:56;56442.47;;;-142.13;37.79
11712;BME280;5912;51.034;6.984;2024-03-25T09:17:21;56412.41;;;-142.13;38.84
11712;BME280;5912;51.034;6.984;2024-03-25T09:19:48;56442.47;;;-142.13;38.93
11712;BME280;5912;51.034;6.984;2024-03-25T09:22:13;56382.38;;;-142.13;39.12
11712;BME280;5912;51.034;6.984;2024-03-25T09:24:38;56382.38;;;-142.13;37.99
11712;BME280;5912;51.034;6.984;2024-03-25T09:27:05;56328.28;;;-142.13;37.33
11712;BME280;5912;51.034;6.984;2024-03-25T09:29:30;56288.22;;;-142.13;36.83
11712;BME280;5912;51.034;6.984;2024-03-25T09:31:56;56300.25;;;-142.13;34.21
11712;BME280;5912;51.034;6.984;2024-03-25T09:34:21;56286.22;;;-142.13;33.71
11712;BME280;5912;51.034;6.984;2024-03-25T09:36:47;56276.19;;;-142.13;32.43
11712;BME280;5912;51.034;6.984;2024-03-25T09:39:12;56284.22;;;-142.13;32.66
11712;BME280;5912;51.034;6.984;2024-03-25T09:41:40;56304.25;;;-142.13;33.26
11712;BME280;5912;51.034;6.984;2024-03-25T09:44:07;56316.25;;;-142.13;34.38
11712;BME280;5912;51.034;6.984;2024-03-25T09:46:33;56300.25;;;-142.13;33.10
11712;BME280;5912;51.034;6.984;2024-03-25T09:48:59;56356.31;;;-142.13;33.21
11712;BME280;5912;51.034;6.984;2024-03-25T09:51:25;56338.31;;;-142.13;33.70
11712;BME280;5912;51.034;6.984;2024-03-25T09:53:50;56360.34;;;-142.13;34.81
11712;BME280;5912;51.034;6.984;2024-03-25T09:56:16;56314.25;;;-142.13;34.89
11712;BME280;5912;51.034;6.984;2024-03-25T09:58:41;56278.19;;;-142.13;33.87
11712;BME280;5912;51.034;6.984;2024-03-25T10:01:09;56296.22;;;-142.13;33.16
11712;BME280;5912;51.034;6.984;2024-03-25T10:03:34;56300.25;;;-142.13;33.70
11712;BME280;5912;51.034;6.984;2024-03-25T10:05:59;56302.25;;;-142.13;33.99
11712;BME280;5912;51.034;6.984;2024-03-25T10:08:24;56286.22;;;-142.13;34.01
11712;BME280;5912;51.034;6.984;2024-03-25T10:10:55;56238.13;;;-142.13;32.00
11712;BME280;5912;51.034;6.984;2024-03-25T10:13:22;56212.09;;;-142.13;31.39
11712;BME280;5912;51.034;6.984;2024-03-25T10:15:48;56186.06;;;-142.13;30.99
11712;BME280;5912;51.034;6.984;2024-03-25T10:18:13;56164.03;;;-142.13;30.20
11712;BME280;5912;51.034;6.984;2024-03-25T10:20:47;56140.00;;;-142.13;29.65
11712;BME280;5912;51.034;6.984;2024-03-25T10:23:13;56152.00;;;-142.13;29.63
11712;BME280;5912;51.034;6.984;2024-03-25T10:25:38;56164.03;;;-142.13;29.73
11712;BME280;5912;51.034;6.984;2024-03-25T10:28:04;56146.00;;;-142.13;30.01
11712;BME280;5912;51.034;6.984;2024-03-25T10:30:30;56236.13;;;-142.13;29.95
11712;BME280;5912;51.034;6.984;2024-03-25T10:33:03;56240.16;;;-142.13;30.56
11712;BME280;5912;51.034;6.984;2024-03-25T10:35:35;56212.09;;;-142.13;30.96
11712;BME280;5912;51.034;6.984;2024-03-25T10:38:06;56182.06;;;-142.13;29.97
11712;BME280;5912;51.034;6.984;2024-03-25T10:40:34;56192.06;;;-142.13;29.72
11712;BME280;5912;51.034;6.984;2024-03-25T10:43:04;56140.00;;;-142.13;29.78
11712;BME280;5912;51.034;6.984;2024-03-25T10:45:45;56115.94;;;-142.13;28.14
11712;BME280;5912;51.034;6.984;2024-03-25T10:48:31;56115.94;;;-142.13;27.04
11712;BME280;5912;51.034;6.984;2024-03-25T10:50:56;56127.97;;;-142.13;27.04
11712;BME280;5912;51.034;6.984;2024-03-25T10:53:24;56111.94;;;-142.13;27.63
11712;BME280;5912;51.034;6.984;2024-03-25T10:55:54;56109.94;;;-142.13;25.85
11712;BME280;5912;51.034;6.984;2024-03-25T10:58:20;56101.94;;;-142.13;26.75
11712;BME280;5912;51.034;6.984;2024-03-25T11:00:47;56105.94;;;-142.13;25.57
11712;BME280;5912;51.034;6.984;2024-03-25T11:03:13;56142.00;;;-142.13;26.87
11712;BME280;5912;51.034;6.984;2024-03-25T11:05:39;56144.00;;;-142.13;27.53
11712;BME280;5912;51.034;6.984;2024-03-25T11:08:15;56160.03;;;-142.13;27.68
11712;BME280;5912;51.034;6.984;2024-03-25T11:10:44;56107.94;;;-142.13;26.78
11712;BME280;5912;51.034;6.984;2024-03-25T11:13:11;56093.91;;;-142.13;25.52
11712;BME280;5912;51.034;6.984;2024-03-25T11:15:43;56129.97;;;-142.13;25.81
11712;BME280;5912;51.034;6.984;2024-03-25T11:18:16;56131.97;;;-142.13;26.03
11712;BME280;5912;51.034;6.984;2024-03-25T11:20:43;56129.97;;;-142.13;26.75
11712;BME280;5912;51.034;6.984;2024-03-25T11:23:09;56123.97;;;-142.13;26.43
11712;BME280;5912;51.034;6.984;2024-03-25T11:25:36;56164.03;;;-142.13;26.83
11712;BME280;5912;51.034;6.984;2024-03-25T11:28:02;56168.03;;;-142.13;26.66
11712;BME280;5912;51.034;6.984;2024-03-25T11:30:27;56176.03;;;-142.13;26.70
11712;BME280;5912;51.034;6.984;2024-03-25T11:32:54;56190.06;;;-142.13;27.48
11712;BME280;5912;51.034;6.984;2024-03-25T11:35:19;56123.97;;;-142.13;27.00
11712;BME280;5912;51.034;6.984;2024-03-25T11:37:45;56131.97;;;-142.13;26.51
11712;BME280;5912;51.034;6.984;2024-03-25T11:40:12;56174.03;;;-142.13;26.94
11712;BME280;5912;51.034;6.984;2024-03-25T11:42:40;56192.06;;;-142.13;27.59
11712;BME280;5912;51.034;6.984;2024-03-25T11:45:13;56202.09;;;-142.13;27.26
11712;BME280;5912;51.034;6.984;2024-03-25T11:47:43;56174.03;;;-142.13;26.99
11712;BME280;5912;51.034;6.984;2024-03-25T11:50:11;56148.00;;;-142.13;26.42
11712;BME280;5912;51.034;6.984;2024-03-25T11:52:36;56164.03;;;-142.13;26.09
11712;BME280;5912;51.034;6.984;2024-03-25T11:55:03;56129.97;;;-142.13;25.59
11712;BME280;5912;51.034;6.984;2024-03-25T11:57:28;56125.97;;;-142.13;24.96
11712;BME280;5912;51.034;6.984;2024-03-25T11:59:54;56127.97;;;-142.13;25.28
11712;BME280;5912;51.034;6.984;2024-03-25T12:02:19;56105.94;;;-142.13;24.83
11712;BME280;5912;51.034;6.984;2024-03-25T12:04:45;56095.91;;;-142.13;25.20
11712;BME280;5912;51.034;6.984;2024-03-25T12:07:14;56093.91;;;-142.13;24.44
11712;BME280;5912;51.034;6.984;2024-03-25T12:09:40;56087.91;;;-142.13;23.57
11712;BME280;5912;51.034;6.984;2024-03-25T12:12:25;56067.88;;;-142.13;24.48
11712;BME280;5912;51.034;6.984;2024-03-25T12:14:51;56061.88;;;-142.13;24.44
11712;BME280;5912;51.034;6.984;2024-03-25T12:17:18;56063.88;;;-142.13;24.20
11712;BME280;5912;51.034;6.984;2024-03-25T12:19:43;56115.94;;;-142.13;25.67
11712;BME280;5912;51.034;6.984;2024-03-25T12:22:08;56148.00;;;-142.13;25.01
11712;BME280;5912;51.034;6.984;2024-03-25T12:24:34;56190.06;;;-142.13;25.76
11712;BME280;5912;51.034;6.984;2024-03-25T12:27:00;56364.34;;;-142.13;26.02
11712;BME280;5912;51.034;6.984;2024-03-25T12:29:26;56268.19;;;-142.13;26.41
11712;BME280;5912;51.034;6.984;2024-03-25T12:31:57;56286.22;;;-142.13;27.36
11712;BME280;5912;51.034;6.984;2024-03-25T12:37:46;56310.25;;;-142.13;29.04
11712;BME280;5912;51.034;6.984;2024-03-25T12:43:35;56366.34;;;-142.13;30.54
11712;BME280;5912;51.034;6.984;2024-03-25T12:46:01;56358.34;;;-142.13;30.51
11712;BME280;5912;51.034;6.984;2024-03-25T12:48:28;56376.34;;;-142.13;30.78
11712;BME280;5912;51.034;6.984;2024-03-25T12:50:54;56372.34;;;-142.13;30.81
11712;BME280;5912;51.034;6.984;2024-03-25T12:53:19;56368.34;;;-142.13;30.49
11712;BME280;5912;51.034;6.984;2024-03-25T12:55:48;56364.34;;;-142.13;29.86